createdAt,value
2023-05-11T00:00:19.605Z,46.32
2023-05-11T00:01:19.499Z,46.32
2023-05-11T00:02:19.535Z,46.30
2023-05-11T00:03:19.624Z,46.29
2023-05-11T00:04:19.559Z,46.28
2023-05-11T00:05:19.518Z,46.27
2023-05-11T00:06:19.514Z,46.29
2023-05-11T00:07:19.484Z,46.31
2023-05-11T00:08:19.453Z,46.32
2023-05-11T00:09:19.441Z,46.30
2023-05-11T00:10:19.596Z,46.28
2023-05-11T00:11:19.462Z,46.30
2023-05-11T00:12:19.436Z,46.25
2023-05-11T00:13:19.456Z,46.24
2023-05-11T00:14:19.442Z,46.25
2023-05-11T00:15:19.427Z,46.27
2023-05-11T00:16:19.462Z,46.26
2023-05-11T00:17:19.425Z,46.26
2023-05-11T00:18:19.426Z,46.26
2023-05-11T00:19:19.750Z,46.21
2023-05-11T00:20:19.734Z,46.24
2023-05-11T00:21:19.394Z,46.26
2023-05-11T00:22:19.352Z,46.26
2023-05-11T00:23:19.372Z,46.28
2023-05-11T00:24:19.350Z,46.24
2023-05-11T00:25:19.376Z,46.21
2023-05-11T00:26:19.325Z,46.21
2023-05-11T00:27:19.343Z,46.21
2023-05-11T00:28:19.320Z,46.21
2023-05-11T00:29:19.301Z,46.22
2023-05-11T00:30:19.552Z,46.21
2023-05-11T00:31:19.307Z,46.22
2023-05-11T00:32:19.295Z,46.22
2023-05-11T00:33:19.276Z,46.20
2023-05-11T00:34:19.297Z,46.16
2023-05-11T00:35:19.363Z,46.19
2023-05-11T00:36:19.254Z,46.17
2023-05-11T00:37:19.289Z,46.20
2023-05-11T00:38:19.264Z,46.18
2023-05-11T00:39:19.238Z,46.22
2023-05-11T00:40:19.447Z,46.21
2023-05-11T00:41:19.250Z,46.21
2023-05-11T00:42:19.207Z,46.19
2023-05-11T00:43:19.231Z,46.16
2023-05-11T00:44:19.219Z,46.18
2023-05-11T00:45:19.219Z,46.16
2023-05-11T00:46:19.240Z,46.14
2023-05-11T00:47:19.183Z,46.14
2023-05-11T00:48:19.176Z,46.18
2023-05-11T00:49:19.199Z,46.12
2023-05-11T00:50:19.409Z,46.16
2023-05-11T00:51:19.169Z,46.17
2023-05-11T00:52:19.138Z,46.16
2023-05-11T00:53:19.136Z,46.18
2023-05-11T00:54:19.142Z,46.13
2023-05-11T00:55:19.134Z,46.14
2023-05-11T00:56:19.122Z,46.10
2023-05-11T00:57:19.111Z,46.11
2023-05-11T00:58:19.148Z,46.13
2023-05-11T00:59:19.110Z,46.14
2023-05-11T01:00:19.322Z,46.12
2023-05-11T01:01:19.270Z,46.09
2023-05-11T01:02:19.155Z,46.07
2023-05-11T01:03:19.151Z,46.04
2023-05-11T01:04:19.055Z,46.09
2023-05-11T01:05:19.044Z,46.08
2023-05-11T01:06:19.047Z,46.07
2023-05-11T01:07:19.040Z,46.06
2023-05-11T01:08:19.022Z,46.06
2023-05-11T01:09:19.029Z,46.04
2023-05-11T01:10:19.200Z,46.07
2023-05-11T01:11:19.097Z,46.03
2023-05-11T01:12:18.995Z,46.04
2023-05-11T01:13:18.992Z,46.05
2023-05-11T01:14:18.994Z,45.99
2023-05-11T01:15:18.970Z,46.05
2023-05-11T01:16:18.971Z,46.04
2023-05-11T01:17:18.957Z,46.03
2023-05-11T01:18:18.987Z,46.01
2023-05-11T01:19:18.947Z,45.99
2023-05-11T01:20:19.158Z,45.98
2023-05-11T01:21:18.936Z,46.02
2023-05-11T01:22:18.910Z,46.00
2023-05-11T01:23:18.911Z,45.99
2023-05-11T01:24:18.914Z,45.99
2023-05-11T01:25:18.880Z,46.01
2023-05-11T01:26:18.915Z,45.98
2023-05-11T01:27:18.877Z,45.97
2023-05-11T01:28:18.876Z,45.98
2023-05-11T01:29:18.880Z,45.97
2023-05-11T01:30:19.073Z,45.99
2023-05-11T01:31:18.941Z,46.02
2023-05-11T01:32:18.854Z,45.98
2023-05-11T01:33:18.858Z,45.96
2023-05-11T01:34:18.844Z,45.98
2023-05-11T01:35:18.839Z,45.98
2023-05-11T01:36:18.808Z,45.98
2023-05-11T01:37:18.805Z,46.03
2023-05-11T01:38:18.826Z,45.99
2023-05-11T01:39:18.790Z,45.93
2023-05-11T01:40:19.006Z,45.95
2023-05-11T01:41:18.799Z,45.96
2023-05-11T01:42:18.771Z,45.96
2023-05-11T01:43:18.765Z,45.94
2023-05-11T01:44:18.750Z,45.94
2023-05-11T01:45:18.767Z,45.91
2023-05-11T01:46:18.779Z,45.92
2023-05-11T01:47:18.752Z,45.90
2023-05-11T01:48:18.717Z,45.91
2023-05-11T01:49:18.713Z,45.94
2023-05-11T01:50:18.874Z,45.96
2023-05-11T01:51:18.702Z,45.94
2023-05-11T01:52:18.680Z,45.91
2023-05-11T01:53:18.677Z,45.96
2023-05-11T01:54:18.688Z,45.89
2023-05-11T01:55:18.684Z,45.93
2023-05-11T01:56:18.691Z,45.95
2023-05-11T01:57:18.720Z,45.91
2023-05-11T01:58:18.717Z,45.90
2023-05-11T01:59:18.737Z,45.89
2023-05-11T02:00:18.930Z,45.91
2023-05-11T02:01:18.763Z,45.90
2023-05-11T02:02:18.794Z,45.92
2023-05-11T02:03:18.806Z,45.94
2023-05-11T02:04:18.779Z,45.90
2023-05-11T02:05:18.759Z,45.88
2023-05-11T02:06:18.763Z,45.85
2023-05-11T02:07:18.764Z,45.83
2023-05-11T02:08:18.773Z,45.85
2023-05-11T02:09:18.777Z,45.87
2023-05-11T02:10:18.918Z,45.83
2023-05-11T02:11:18.846Z,45.85
2023-05-11T02:12:18.807Z,45.83
2023-05-11T02:13:18.813Z,45.86
2023-05-11T02:14:18.824Z,45.87
2023-05-11T02:15:18.820Z,45.86
2023-05-11T02:16:18.861Z,45.83
2023-05-11T02:17:18.845Z,45.85
2023-05-11T02:18:18.866Z,45.82
2023-05-11T02:19:18.870Z,45.80
2023-05-11T02:20:19.425Z,45.84
2023-05-11T02:21:18.859Z,45.78
2023-05-11T02:22:18.868Z,45.80
2023-05-11T02:23:18.870Z,45.83
2023-05-11T02:24:18.892Z,45.82
2023-05-11T02:25:18.886Z,45.79
2023-05-11T02:26:18.896Z,45.80
2023-05-11T02:27:18.895Z,45.81
2023-05-11T02:28:18.905Z,45.82
2023-05-11T02:29:18.935Z,45.81
2023-05-11T02:30:19.117Z,45.80
2023-05-11T02:31:18.911Z,45.78
2023-05-11T02:32:18.932Z,45.77
2023-05-11T02:33:18.935Z,45.74
2023-05-11T02:34:19.288Z,45.75
2023-05-11T02:35:18.941Z,45.72
2023-05-11T02:36:18.946Z,45.78
2023-05-11T02:37:18.975Z,45.77
2023-05-11T02:38:18.969Z,45.73
2023-05-11T02:39:18.980Z,45.74
2023-05-11T02:40:19.236Z,45.76
2023-05-11T02:41:18.998Z,45.76
2023-05-11T02:42:19.030Z,45.73
2023-05-11T02:43:19.036Z,45.75
2023-05-11T02:44:19.029Z,45.72
2023-05-11T02:45:19.054Z,45.73
2023-05-11T02:46:19.102Z,45.73
2023-05-11T02:47:19.065Z,45.70
2023-05-11T02:48:19.077Z,45.71
2023-05-11T02:49:19.096Z,45.72
2023-05-11T02:50:19.293Z,45.72
2023-05-11T02:51:19.093Z,45.71
2023-05-11T02:52:19.099Z,45.71
2023-05-11T02:53:19.113Z,45.68
2023-05-11T02:54:19.111Z,45.71
2023-05-11T02:55:19.109Z,45.74
2023-05-11T02:56:19.128Z,45.75
2023-05-11T02:57:19.140Z,45.69
2023-05-11T02:58:19.257Z,45.65
2023-05-11T02:59:19.155Z,45.67
2023-05-11T03:00:19.408Z,45.66
2023-05-11T03:01:19.240Z,45.68
2023-05-11T03:02:19.316Z,45.65
2023-05-11T03:03:19.328Z,45.66
2023-05-11T03:04:19.205Z,45.67
2023-05-11T03:05:19.225Z,45.64
2023-05-11T03:06:19.258Z,45.69
2023-05-11T03:07:19.227Z,45.67
2023-05-11T03:08:19.232Z,45.68
2023-05-11T03:09:19.226Z,45.65
2023-05-11T03:10:19.482Z,45.62
2023-05-11T03:11:19.208Z,45.66
2023-05-11T03:12:19.210Z,45.64
2023-05-11T03:13:19.234Z,45.63
2023-05-11T03:14:19.209Z,45.62
2023-05-11T03:15:19.209Z,45.66
2023-05-11T03:16:21.285Z,45.62
2023-05-11T03:17:19.218Z,45.60
2023-05-11T03:18:19.260Z,45.64
2023-05-11T03:19:19.229Z,45.65
2023-05-11T03:20:19.388Z,45.63
2023-05-11T03:21:19.252Z,45.63
2023-05-11T03:22:19.257Z,45.62
2023-05-11T03:23:19.271Z,45.60
2023-05-11T03:24:19.286Z,45.60
2023-05-11T03:25:19.288Z,45.61
2023-05-11T03:26:19.334Z,45.60
2023-05-11T03:27:19.338Z,45.61
2023-05-11T03:28:19.341Z,45.60
2023-05-11T03:29:19.363Z,45.62
2023-05-11T03:30:19.674Z,45.64
2023-05-11T03:31:19.374Z,45.62
2023-05-11T03:32:19.497Z,45.57
2023-05-11T03:33:19.377Z,45.55
2023-05-11T03:34:19.380Z,45.60
2023-05-11T03:35:19.408Z,45.60
2023-05-11T03:36:19.413Z,45.60
2023-05-11T03:37:19.418Z,45.60
2023-05-11T03:38:19.419Z,45.58
2023-05-11T03:39:19.442Z,45.54
2023-05-11T03:40:19.638Z,45.59
2023-05-11T03:41:19.464Z,45.56
2023-05-11T03:42:19.471Z,45.52
2023-05-11T03:43:19.473Z,45.53
2023-05-11T03:44:19.486Z,45.52
2023-05-11T03:45:19.524Z,45.50
2023-05-11T03:46:19.528Z,45.50
2023-05-11T03:47:19.587Z,45.51
2023-05-11T03:48:19.533Z,45.52
2023-05-11T03:49:19.542Z,45.53
2023-05-11T03:50:19.682Z,45.54
2023-05-11T03:51:19.545Z,45.52
2023-05-11T03:52:19.537Z,45.54
2023-05-11T03:53:19.577Z,45.51
2023-05-11T03:54:19.571Z,45.49
2023-05-11T03:55:19.595Z,45.48
2023-05-11T03:56:19.580Z,45.50
2023-05-11T03:57:19.592Z,45.53
2023-05-11T03:58:19.595Z,45.53
2023-05-11T03:59:19.617Z,45.52
2023-05-11T04:00:19.794Z,45.50
2023-05-11T04:01:19.632Z,45.46
2023-05-11T04:02:19.735Z,45.45
2023-05-11T04:03:19.808Z,45.44
2023-05-11T04:04:19.701Z,45.49
2023-05-11T04:05:19.704Z,45.45
2023-05-11T04:06:19.699Z,45.45
2023-05-11T04:07:19.715Z,45.44
2023-05-11T04:08:19.726Z,45.44
2023-05-11T04:09:19.761Z,45.44
2023-05-11T04:10:19.937Z,45.45
2023-05-11T04:11:19.745Z,45.41
2023-05-11T04:12:19.774Z,45.43
2023-05-11T04:13:19.770Z,45.44
2023-05-11T04:14:19.785Z,45.45
2023-05-11T04:15:19.807Z,45.45
2023-05-11T04:16:19.827Z,45.44
2023-05-11T04:17:19.811Z,45.42
2023-05-11T04:18:19.859Z,45.42
2023-05-11T04:19:19.853Z,45.41
2023-05-11T04:20:20.059Z,45.41
2023-05-11T04:21:19.849Z,45.39
2023-05-11T04:22:19.852Z,45.39
2023-05-11T04:23:19.863Z,45.38
2023-05-11T04:24:19.892Z,45.39
2023-05-11T04:25:19.890Z,45.40
2023-05-11T04:26:19.892Z,45.40
2023-05-11T04:27:19.902Z,45.37
2023-05-11T04:28:19.908Z,45.37
2023-05-11T04:29:19.941Z,45.36
2023-05-11T04:30:20.201Z,45.33
2023-05-11T04:31:19.966Z,45.34
2023-05-11T04:32:19.974Z,45.35
2023-05-11T04:33:19.967Z,45.37
2023-05-11T04:34:19.980Z,45.37
2023-05-11T04:35:20.352Z,45.33
2023-05-11T04:36:20.011Z,45.38
2023-05-11T04:37:20.023Z,45.37
2023-05-11T04:38:20.049Z,45.38
2023-05-11T04:39:20.052Z,45.39
2023-05-11T04:40:20.224Z,45.36
2023-05-11T04:41:20.059Z,45.37
2023-05-11T04:42:20.083Z,45.33
2023-05-11T04:43:20.094Z,45.34
2023-05-11T04:44:20.106Z,45.36
2023-05-11T04:45:20.108Z,45.36
2023-05-11T04:46:20.195Z,45.34
2023-05-11T04:47:20.146Z,45.32
2023-05-11T04:48:21.083Z,45.29
2023-05-11T04:49:20.162Z,45.30
2023-05-11T04:50:20.284Z,45.31
2023-05-11T04:51:20.172Z,45.29
2023-05-11T04:52:20.201Z,45.29
2023-05-11T04:53:20.207Z,45.31
2023-05-11T04:54:20.248Z,45.28
2023-05-11T04:55:20.351Z,45.26
2023-05-11T04:56:20.242Z,45.25
2023-05-11T04:57:20.256Z,45.26
2023-05-11T04:58:20.275Z,45.23
2023-05-11T04:59:20.292Z,45.23
2023-05-11T05:00:20.755Z,45.21
2023-05-11T05:01:20.344Z,45.21
2023-05-11T05:02:20.348Z,45.17
2023-05-11T05:03:20.378Z,45.18
2023-05-11T05:04:20.397Z,45.17
2023-05-11T05:05:20.363Z,45.18
2023-05-11T05:06:20.363Z,45.16
2023-05-11T05:07:20.376Z,45.14
2023-05-11T05:08:20.419Z,45.14
2023-05-11T05:09:20.410Z,45.15
2023-05-11T05:10:20.532Z,45.11
2023-05-11T05:11:20.433Z,45.11
2023-05-11T05:12:20.434Z,45.12
2023-05-11T05:13:20.459Z,45.12
2023-05-11T05:14:20.455Z,45.14
2023-05-11T05:15:20.475Z,45.17
2023-05-11T05:16:20.540Z,45.13
2023-05-11T05:17:20.519Z,45.10
2023-05-11T05:18:20.537Z,45.11
2023-05-11T05:19:20.531Z,45.12
2023-05-11T05:20:20.740Z,45.13
2023-05-11T05:21:20.567Z,45.16
2023-05-11T05:22:20.580Z,45.15
2023-05-11T05:23:20.599Z,45.10
2023-05-11T05:24:20.593Z,45.12
2023-05-11T05:25:20.621Z,45.12
2023-05-11T05:26:20.635Z,45.09
2023-05-11T05:27:20.650Z,45.08
2023-05-11T05:28:20.668Z,45.11
2023-05-11T05:29:20.699Z,45.03
2023-05-11T05:30:20.855Z,44.98
2023-05-11T05:31:20.792Z,43.88
2023-05-11T05:32:20.740Z,43.46
2023-05-11T05:33:20.727Z,43.41
2023-05-11T05:34:20.763Z,43.73
2023-05-11T05:35:20.787Z,42.81
2023-05-11T05:36:20.802Z,43.01
2023-05-11T05:37:20.793Z,43.25
2023-05-11T05:38:20.818Z,44.24
2023-05-11T05:39:20.830Z,44.17
2023-05-11T05:40:21.165Z,44.31
2023-05-11T05:41:20.844Z,44.38
2023-05-11T05:42:20.860Z,44.12
2023-05-11T05:43:20.866Z,44.73
2023-05-11T05:44:20.892Z,44.31
2023-05-11T05:45:20.944Z,44.27
2023-05-11T05:46:20.962Z,44.00
2023-05-11T05:47:20.993Z,43.95
2023-05-11T05:48:20.934Z,44.41
2023-05-11T05:49:20.966Z,45.42
2023-05-11T05:50:20.985Z,45.39
2023-05-11T05:51:20.961Z,45.31
2023-05-11T05:52:20.957Z,45.48
2023-05-11T05:53:21.053Z,45.63
2023-05-11T05:54:20.968Z,45.74
2023-05-11T05:55:20.950Z,46.05
2023-05-11T05:56:20.943Z,46.36
2023-05-11T05:57:20.969Z,46.54
2023-05-11T05:58:21.036Z,46.61
2023-05-11T05:59:21.045Z,46.83
2023-05-11T06:00:21.234Z,46.98
2023-05-11T06:01:21.172Z,47.04
2023-05-11T06:02:21.318Z,47.18
2023-05-11T06:03:21.397Z,47.31
2023-05-11T06:04:21.419Z,47.49
2023-05-11T06:05:21.453Z,47.57
2023-05-11T06:06:21.442Z,47.68
2023-05-11T06:07:21.503Z,47.83
2023-05-11T06:08:21.581Z,47.98
2023-05-11T06:09:21.603Z,48.16
2023-05-11T06:10:21.914Z,48.15
2023-05-11T06:11:21.684Z,48.13
2023-05-11T06:12:21.751Z,48.68
2023-05-11T06:13:21.835Z,48.97
2023-05-11T06:14:21.849Z,48.57
2023-05-11T06:15:21.894Z,48.74
2023-05-11T06:16:21.979Z,48.79
2023-05-11T06:17:21.995Z,46.82
2023-05-11T06:18:22.122Z,45.22
2023-05-11T06:19:22.112Z,43.91
2023-05-11T06:20:22.149Z,43.65
2023-05-11T06:21:22.112Z,43.76
2023-05-11T06:22:22.132Z,44.28
2023-05-11T06:23:22.102Z,45.83
2023-05-11T06:24:22.145Z,45.76
2023-05-11T06:25:22.100Z,46.03
2023-05-11T06:26:22.104Z,46.14
2023-05-11T06:27:22.156Z,46.35
2023-05-11T06:28:22.185Z,46.56
2023-05-11T06:29:22.283Z,46.84
2023-05-11T06:30:22.284Z,47.41
2023-05-11T06:31:22.359Z,47.13
2023-05-11T06:32:22.448Z,47.17
2023-05-11T06:33:22.437Z,47.33
2023-05-11T06:34:22.503Z,47.42
2023-05-11T06:35:22.648Z,47.38
2023-05-11T06:36:22.650Z,48.34
2023-05-11T06:37:22.654Z,48.34
2023-05-11T06:38:22.727Z,47.88
2023-05-11T06:39:22.755Z,47.61
2023-05-11T06:40:22.896Z,47.42
2023-05-11T06:41:22.904Z,47.36
2023-05-11T06:42:22.923Z,47.33
2023-05-11T06:43:22.971Z,47.41
2023-05-11T06:44:23.027Z,47.34
2023-05-11T06:45:23.099Z,47.43
2023-05-11T06:46:23.202Z,47.56
2023-05-11T06:47:23.202Z,47.65
2023-05-11T06:48:23.244Z,47.58
2023-05-11T06:49:23.372Z,47.71
2023-05-11T06:50:25.074Z,47.80
2023-05-11T06:51:23.356Z,48.19
2023-05-11T06:52:23.327Z,47.98
2023-05-11T06:53:23.310Z,48.02
2023-05-11T06:54:23.317Z,47.99
2023-05-11T06:55:23.314Z,47.93
2023-05-11T06:56:23.420Z,47.84
2023-05-11T06:57:23.283Z,47.87
2023-05-11T06:58:23.324Z,47.95
2023-05-11T06:59:23.286Z,47.91
2023-05-11T07:00:23.282Z,47.95
2023-05-11T07:01:23.387Z,47.98
2023-05-11T07:02:23.272Z,48.16
2023-05-11T07:03:23.276Z,48.28
2023-05-11T07:04:23.320Z,48.30
2023-05-11T07:05:23.234Z,48.35
2023-05-11T07:06:23.251Z,48.34
2023-05-11T07:07:23.241Z,48.42
2023-05-11T07:08:23.203Z,48.50
2023-05-11T07:09:23.206Z,48.54
2023-05-11T07:10:23.216Z,48.48
2023-05-11T07:11:23.196Z,48.62
2023-05-11T07:12:23.195Z,48.56
2023-05-11T07:13:23.178Z,48.48
2023-05-11T07:14:23.169Z,48.45
2023-05-11T07:15:23.166Z,48.44
2023-05-11T07:16:23.208Z,48.50
2023-05-11T07:17:23.230Z,48.36
2023-05-11T07:18:23.237Z,48.49
2023-05-11T07:19:23.179Z,48.55
2023-05-11T07:20:23.155Z,48.52
2023-05-11T07:21:23.169Z,48.36
2023-05-11T07:22:23.169Z,48.54
2023-05-11T07:23:23.202Z,48.45
2023-05-11T07:24:23.176Z,48.55
2023-05-11T07:25:23.175Z,48.57
2023-05-11T07:26:23.158Z,48.54
2023-05-11T07:27:23.147Z,48.57
2023-05-11T07:28:23.161Z,48.43
2023-05-11T07:29:23.126Z,48.51
2023-05-11T07:30:23.431Z,48.59
2023-05-11T07:31:23.208Z,44.58
2023-05-11T07:32:23.184Z,41.77
2023-05-11T07:33:23.144Z,40.31
2023-05-11T07:34:23.173Z,39.76
2023-05-11T07:35:24.159Z,39.70
2023-05-11T07:36:23.407Z,39.03
2023-05-11T07:37:23.214Z,39.63
2023-05-11T07:38:23.232Z,40.08
2023-05-11T07:39:23.254Z,40.68
2023-05-11T07:40:23.290Z,40.30
2023-05-11T07:41:23.432Z,40.04
2023-05-11T07:42:23.330Z,39.12
2023-05-11T07:43:23.720Z,38.34
2023-05-11T07:44:23.685Z,38.56
2023-05-11T07:45:23.541Z,38.32
2023-05-11T07:46:23.941Z,38.24
2023-05-11T07:47:23.851Z,38.29
2023-05-11T07:48:23.790Z,37.94
2023-05-11T07:49:35.235Z,38.05
2023-05-11T07:50:25.759Z,38.38
2023-05-11T07:51:23.647Z,38.10
2023-05-11T07:52:23.618Z,38.12
2023-05-11T07:53:23.657Z,37.84
2023-05-11T07:54:23.637Z,37.84
2023-05-11T07:55:23.682Z,38.07
2023-05-11T07:56:23.643Z,37.76
2023-05-11T07:57:23.660Z,37.72
2023-05-11T07:58:23.644Z,37.66
2023-05-11T07:59:23.637Z,37.69
2023-05-11T08:00:23.692Z,37.75
2023-05-11T08:01:23.637Z,37.86
2023-05-11T08:02:23.741Z,37.91
2023-05-11T08:03:23.687Z,37.94
2023-05-11T08:04:23.691Z,37.76
2023-05-11T08:05:23.685Z,37.63
2023-05-11T08:06:23.654Z,37.82
2023-05-11T08:07:23.666Z,37.85
2023-05-11T08:08:23.662Z,37.85
2023-05-11T08:09:23.659Z,37.71
2023-05-11T08:10:23.710Z,37.72
2023-05-11T08:11:23.712Z,37.43
2023-05-11T08:12:23.677Z,37.48
2023-05-11T08:13:23.666Z,37.37
2023-05-11T08:14:23.692Z,37.44
2023-05-11T08:15:23.676Z,37.33
2023-05-11T08:16:23.805Z,37.30
2023-05-11T08:17:23.721Z,37.45
2023-05-11T08:18:23.755Z,37.52
2023-05-11T08:19:23.759Z,37.48
2023-05-11T08:20:23.941Z,37.43
2023-05-11T08:21:23.928Z,37.37
2023-05-11T08:22:23.799Z,37.48
2023-05-11T08:23:23.831Z,37.48
2023-05-11T08:24:24.012Z,37.48
2023-05-11T08:25:23.890Z,37.71
2023-05-11T08:26:23.924Z,38.04
2023-05-11T08:27:23.985Z,38.50
2023-05-11T08:28:23.955Z,38.86
2023-05-11T08:29:23.950Z,39.25
2023-05-11T08:30:23.960Z,39.53
2023-05-11T08:31:24.049Z,39.58
2023-05-11T08:32:24.021Z,39.88
2023-05-11T08:33:36.661Z,39.79
2023-05-11T08:34:25.164Z,39.72
2023-05-11T08:35:24.126Z,39.66
2023-05-11T08:36:24.010Z,39.79
2023-05-11T08:37:24.004Z,39.78
2023-05-11T08:38:23.976Z,40.07
2023-05-11T08:39:43.263Z,40.30
2023-05-11T08:40:24.985Z,40.06
2023-05-11T08:41:23.963Z,40.12
2023-05-11T08:42:23.953Z,39.95
2023-05-11T08:43:23.938Z,39.91
2023-05-11T08:44:23.943Z,39.82
2023-05-11T08:45:23.932Z,39.75
2023-05-11T08:46:24.039Z,39.63
2023-05-11T08:47:24.140Z,39.65
2023-05-11T08:48:23.931Z,39.66
2023-05-11T08:49:23.922Z,39.56
2023-05-11T08:50:23.914Z,39.55
2023-05-11T08:51:23.965Z,39.50
2023-05-11T08:52:23.889Z,39.55
2023-05-11T08:53:23.908Z,39.41
2023-05-11T08:54:23.977Z,39.45
2023-05-11T08:55:24.023Z,39.44
2023-05-11T08:56:24.067Z,39.44
2023-05-11T08:57:24.089Z,39.49
2023-05-11T08:58:24.171Z,39.42
2023-05-11T08:59:24.199Z,39.40
2023-05-11T09:00:24.217Z,39.40
2023-05-11T09:01:24.252Z,39.38
2023-05-11T09:02:24.287Z,39.27
2023-05-11T09:03:24.268Z,39.25
2023-05-11T09:04:24.319Z,39.20
2023-05-11T09:05:24.400Z,39.14
2023-05-11T09:06:24.375Z,39.05
2023-05-11T09:07:24.409Z,39.05
2023-05-11T09:08:24.376Z,39.03
2023-05-11T09:09:24.402Z,39.01
2023-05-11T09:10:24.425Z,38.95
2023-05-11T09:11:24.457Z,38.94
2023-05-11T09:12:24.486Z,39.07
2023-05-11T09:13:24.551Z,38.93
2023-05-11T09:14:27.636Z,38.93
2023-05-11T09:15:24.539Z,38.93
2023-05-11T09:16:36.891Z,38.91
2023-05-11T09:17:25.629Z,38.89
2023-05-11T09:18:24.583Z,38.79
2023-05-11T09:19:24.540Z,38.78
2023-05-11T09:20:24.521Z,38.82
2023-05-11T09:21:24.503Z,38.68
2023-05-11T09:22:24.493Z,38.78
2023-05-11T09:23:24.492Z,38.69
2023-05-11T09:24:24.481Z,38.68
2023-05-11T09:25:24.473Z,38.69
2023-05-11T09:26:24.528Z,38.65
2023-05-11T09:27:24.445Z,38.62
2023-05-11T09:28:25.753Z,38.53
2023-05-11T09:30:25.438Z,38.89
2023-05-11T09:31:24.507Z,38.99
2023-05-11T09:32:24.538Z,39.17
2023-05-11T09:33:24.454Z,39.34
2023-05-11T09:34:24.399Z,40.12
2023-05-11T09:35:24.388Z,39.93
2023-05-11T09:36:24.393Z,39.81
2023-05-11T09:37:24.391Z,40.06
2023-05-11T09:38:24.370Z,39.70
2023-05-11T09:39:35.547Z,39.81
2023-05-11T09:40:27.353Z,39.91
2023-05-11T09:41:24.344Z,39.50
2023-05-11T09:42:24.350Z,39.34
2023-05-11T09:43:24.340Z,39.21
2023-05-11T09:44:24.406Z,39.31
2023-05-11T09:45:24.317Z,39.30
2023-05-11T09:46:24.356Z,39.32
2023-05-11T09:47:24.311Z,39.33
2023-05-11T09:48:24.351Z,39.20
2023-05-11T09:49:24.297Z,39.30
2023-05-11T09:50:26.813Z,39.18
2023-05-11T09:51:24.488Z,39.16
2023-05-11T09:52:24.501Z,39.12
2023-05-11T09:53:26.612Z,39.01
2023-05-11T09:54:24.534Z,38.99
2023-05-11T09:55:24.553Z,38.96
2023-05-11T09:56:24.543Z,38.94
2023-05-11T09:57:24.552Z,38.91
2023-05-11T09:58:24.547Z,38.78
2023-05-11T09:59:26.236Z,38.72
2023-05-11T10:00:24.519Z,38.74
2023-05-11T10:01:24.578Z,38.76
2023-05-11T10:02:24.559Z,38.74
2023-05-11T10:03:24.617Z,38.78
2023-05-11T10:04:24.804Z,38.80
2023-05-11T10:05:24.570Z,38.71
2023-05-11T10:06:24.567Z,38.66
2023-05-11T10:07:24.555Z,38.59
2023-05-11T10:08:24.604Z,38.65
2023-05-11T10:09:24.538Z,38.55
2023-05-11T10:10:24.525Z,38.57
2023-05-11T10:11:26.138Z,38.50
2023-05-11T10:12:24.556Z,38.51
2023-05-11T10:13:24.537Z,38.51
2023-05-11T10:14:24.558Z,38.45
2023-05-11T10:15:24.549Z,38.38
2023-05-11T10:16:24.571Z,38.29
2023-05-11T10:17:24.584Z,38.21
2023-05-11T10:18:24.600Z,38.26
2023-05-11T10:19:24.536Z,38.23
2023-05-11T10:20:24.544Z,38.22
2023-05-11T10:21:24.575Z,38.20
2023-05-11T10:22:24.632Z,38.11
2023-05-11T10:23:24.613Z,38.13
2023-05-11T10:24:24.582Z,38.01
2023-05-11T10:25:24.608Z,38.26
2023-05-11T10:26:24.621Z,38.41
2023-05-11T10:27:24.618Z,38.67
2023-05-11T10:28:24.641Z,39.07
2023-05-11T10:29:24.627Z,39.55
2023-05-11T10:30:24.640Z,39.66
2023-05-11T10:31:24.698Z,39.33
2023-05-11T10:32:25.020Z,39.52
2023-05-11T10:33:24.785Z,39.86
2023-05-11T10:34:24.826Z,39.83
2023-05-11T10:35:24.859Z,39.64
2023-05-11T10:36:24.818Z,39.50
2023-05-11T10:37:24.848Z,39.36
2023-05-11T10:38:24.872Z,39.28
2023-05-11T10:39:24.910Z,39.26
2023-05-11T10:40:24.922Z,39.19
2023-05-11T10:41:24.951Z,39.09
2023-05-11T10:42:25.472Z,39.11
2023-05-11T10:43:25.031Z,39.06
2023-05-11T10:44:25.060Z,39.00
2023-05-11T10:45:25.063Z,38.96
2023-05-11T10:46:25.491Z,38.94
2023-05-11T10:47:25.130Z,38.97
2023-05-11T10:48:25.088Z,38.97
2023-05-11T10:49:25.123Z,38.94
2023-05-11T10:50:25.158Z,38.89
2023-05-11T10:51:25.164Z,38.84
2023-05-11T10:52:25.281Z,38.83
2023-05-11T10:53:25.160Z,38.82
2023-05-11T10:54:25.164Z,38.71
2023-05-11T10:55:25.154Z,38.73
2023-05-11T10:56:25.163Z,38.59
2023-05-11T10:57:25.199Z,38.57
2023-05-11T10:58:25.163Z,38.44
2023-05-11T10:59:25.180Z,38.42
2023-05-11T11:00:25.211Z,38.41
2023-05-11T11:01:25.205Z,38.44
2023-05-11T11:02:25.217Z,38.49
2023-05-11T11:03:25.203Z,38.28
2023-05-11T11:04:25.182Z,38.32
2023-05-11T11:05:25.201Z,38.24
2023-05-11T11:06:25.219Z,38.22
2023-05-11T11:07:25.167Z,38.32
2023-05-11T11:08:25.165Z,38.23
2023-05-11T11:09:25.153Z,38.25
2023-05-11T11:10:25.167Z,38.23
2023-05-11T11:11:25.199Z,38.17
2023-05-11T11:12:25.196Z,38.75
2023-05-11T11:13:25.240Z,38.86
2023-05-11T11:14:25.228Z,38.92
2023-05-11T11:15:25.274Z,39.16
2023-05-11T11:16:25.356Z,39.31
2023-05-11T11:17:25.369Z,39.39
2023-05-11T11:18:25.424Z,39.48
2023-05-11T11:19:25.414Z,39.49
2023-05-11T11:20:25.473Z,39.43
2023-05-11T11:21:26.270Z,39.44
2023-05-11T11:22:25.631Z,39.35
2023-05-11T11:23:25.675Z,39.32
2023-05-11T11:24:25.724Z,39.33
2023-05-11T11:25:25.821Z,39.31
2023-05-11T11:26:25.854Z,39.31
2023-05-11T11:27:28.204Z,39.34
2023-05-11T11:28:25.891Z,39.35
2023-05-11T11:29:25.882Z,39.36
2023-05-11T11:30:25.882Z,39.35
2023-05-11T11:31:25.935Z,39.38
2023-05-11T11:32:26.062Z,39.37
2023-05-11T11:33:25.874Z,39.39
2023-05-11T11:34:25.850Z,39.41
2023-05-11T11:35:25.843Z,39.40
2023-05-11T11:36:25.848Z,39.44
2023-05-11T11:37:25.829Z,39.45
2023-05-11T11:38:27.892Z,39.44
2023-05-11T11:39:25.818Z,39.47
2023-05-11T11:40:26.530Z,39.49
2023-05-11T11:41:25.802Z,39.47
2023-05-11T11:42:26.035Z,39.45
2023-05-11T11:43:25.821Z,39.50
2023-05-11T11:44:25.773Z,39.48
2023-05-11T11:45:25.784Z,39.51
2023-05-11T11:46:25.796Z,39.50
2023-05-11T11:47:25.776Z,39.47
2023-05-11T11:48:25.745Z,39.48
2023-05-11T11:49:25.752Z,39.46
2023-05-11T11:50:25.725Z,39.51
2023-05-11T11:51:25.723Z,39.52
2023-05-11T11:52:25.711Z,39.49
2023-05-11T11:53:25.698Z,39.52
2023-05-11T11:54:25.711Z,39.53
2023-05-11T11:55:25.746Z,39.52
2023-05-11T11:56:25.813Z,39.54
2023-05-11T11:57:25.894Z,39.55
2023-05-11T11:58:25.981Z,39.55
2023-05-11T11:59:26.040Z,39.56
2023-05-11T12:00:26.062Z,39.55
2023-05-11T12:01:26.064Z,39.56
2023-05-11T12:02:26.254Z,39.58
2023-05-11T12:03:26.356Z,39.59
2023-05-11T12:04:26.359Z,39.61
2023-05-11T12:05:26.345Z,39.62
2023-05-11T12:06:26.897Z,39.60
2023-05-11T12:07:26.421Z,39.61
2023-05-11T12:08:26.479Z,39.63
2023-05-11T12:09:26.729Z,39.63
2023-05-11T12:10:26.611Z,39.65
2023-05-11T12:11:26.654Z,39.63
2023-05-11T12:12:26.729Z,39.66
2023-05-11T12:13:26.787Z,39.64
2023-05-11T12:14:26.860Z,39.65
2023-05-11T12:15:26.895Z,39.66
2023-05-11T12:16:26.983Z,39.65
2023-05-11T12:17:27.090Z,39.66
2023-05-11T12:18:27.080Z,39.70
2023-05-11T12:19:27.135Z,39.88
2023-05-11T12:20:27.199Z,40.27
2023-05-11T12:21:27.255Z,40.64
2023-05-11T12:22:27.350Z,40.51
2023-05-11T12:23:27.400Z,40.55
2023-05-11T12:24:27.455Z,40.67
2023-05-11T12:25:27.527Z,40.85
2023-05-11T12:26:27.585Z,40.88
2023-05-11T12:27:27.639Z,40.96
2023-05-11T12:28:27.693Z,41.52
2023-05-11T12:29:27.766Z,41.27
2023-05-11T12:30:27.807Z,41.33
2023-05-11T12:31:27.879Z,41.34
2023-05-11T12:32:27.974Z,41.70
2023-05-11T12:33:27.938Z,41.70
2023-05-11T12:34:27.993Z,41.69
2023-05-11T12:35:28.018Z,41.71
2023-05-11T12:36:28.064Z,41.72
2023-05-11T12:37:28.170Z,41.89
2023-05-11T12:38:28.134Z,41.89
2023-05-11T12:39:28.168Z,41.92
2023-05-11T12:40:28.243Z,41.95
2023-05-11T12:41:28.241Z,41.93
2023-05-11T12:42:28.263Z,41.93
2023-05-11T12:43:28.544Z,41.95
2023-05-11T12:44:28.300Z,42.07
2023-05-11T12:45:28.327Z,42.10
2023-05-11T12:46:28.387Z,42.19
2023-05-11T12:47:28.418Z,42.21
2023-05-11T12:48:28.376Z,42.24
2023-05-11T12:49:28.397Z,42.23
2023-05-11T12:50:28.475Z,42.30
2023-05-11T12:51:28.536Z,42.30
2023-05-11T12:52:28.489Z,42.35
2023-05-11T12:53:28.479Z,42.38